sensor_id;sensor_type;location;lat;lon;timestamp;temperature;humidity
33699;DHT22;20032;52.436;13.312;2023-10-19T00:00:54;8.00;99.90
33699;DHT22;20032;52.436;13.312;2023-10-19T00:03:21;8.10;99.90
33699;DHT22;20032;52.436;13.312;2023-10-19T00:05:49;8.10;99.90
33699;DHT22;20032;52.436;13.312;2023-10-19T00:08:14;8.00;99.90
33699;DHT22;20032;52.436;13.312;2023-10-19T00:10:42;8.00;99.90
33699;DHT22;20032;52.436;13.312;2023-10-19T00:13:09;8.00;99.90
33699;DHT22;20032;52.436;13.312;2023-10-19T00:15:37;8.00;99.90
33699;DHT22;20032;52.436;13.312;2023-10-19T00:18:06;8.00;99.90
33699;DHT22;20032;52.436;13.312;2023-10-19T00:20:50;8.00;99.90
33699;DHT22;20032;52.436;13.312;2023-10-19T00:23:36;8.00;99.90
33699;DHT22;20032;52.436;13.312;2023-10-19T00:26:03;7.90;99.90
33699;DHT22;20032;52.436;13.312;2023-10-19T00:28:34;8.00;99.90
33699;DHT22;20032;52.436;13.312;2023-10-19T00:31:01;7.90;99.90
33699;DHT22;20032;52.436;13.312;2023-10-19T00:33:34;8.00;99.90
33699;DHT22;20032;52.436;13.312;2023-10-19T00:36:04;8.00;99.90
33699;DHT22;20032;52.436;13.312;2023-10-19T00:38:34;7.90;99.90
33699;DHT22;20032;52.436;13.312;2023-10-19T00:41:02;7.90;99.90
33699;DHT22;20032;52.436;13.312;2023-10-19T00:43:37;7.90;99.90
33699;DHT22;20032;52.436;13.312;2023-10-19T00:46:09;7.90;99.90
33699;DHT22;20032;52.436;13.312;2023-10-19T00:48:54;7.90;99.90
33699;DHT22;20032;52.436;13.312;2023-10-19T00:51:27;7.80;99.90
33699;DHT22;20032;52.436;13.312;2023-10-19T00:54:00;7.90;99.90
33699;DHT22;20032;52.436;13.312;2023-10-19T00:56:31;7.80;99.90
33699;DHT22;20032;52.436;13.312;2023-10-19T00:58:59;7.80;99.90
33699;DHT22;20032;52.436;13.312;2023-10-19T01:01:33;7.80;99.90
33699;DHT22;20032;52.436;13.312;2023-10-19T01:04:01;7.90;99.90
33699;DHT22;20032;52.436;13.312;2023-10-19T01:06:29;7.80;99.90
33699;DHT22;20032;52.436;13.312;2023-10-19T01:08:57;7.90;99.90
33699;DHT22;20032;52.436;13.312;2023-10-19T01:11:23;7.80;99.90
33699;DHT22;20032;52.436;13.312;2023-10-19T01:13:53;7.90;99.90
33699;DHT22;20032;52.436;13.312;2023-10-19T01:16:19;7.90;99.90
33699;DHT22;20032;52.436;13.312;2023-10-19T01:18:48;7.80;99.90
33699;DHT22;20032;52.436;13.312;2023-10-19T01:21:16;7.80;99.90
33699;DHT22;20032;52.436;13.312;2023-10-19T01:23:46;7.80;99.90
33699;DHT22;20032;52.436;13.312;2023-10-19T01:26:13;7.80;99.90
33699;DHT22;20032;52.436;13.312;2023-10-19T01:28:44;7.80;99.90
33699;DHT22;20032;52.436;13.312;2023-10-19T01:31:16;7.80;99.90
33699;DHT22;20032;52.436;13.312;2023-10-19T01:33:47;7.90;99.90
33699;DHT22;20032;52.436;13.312;2023-10-19T01:36:13;7.90;99.90
33699;DHT22;20032;52.436;13.312;2023-10-19T01:38:40;7.80;99.90
33699;DHT22;20032;52.436;13.312;2023-10-19T01:41:07;7.80;99.90
33699;DHT22;20032;52.436;13.312;2023-10-19T01:43:44;7.80;99.90
33699;DHT22;20032;52.436;13.312;2023-10-19T01:46:11;7.90;99.90
33699;DHT22;20032;52.436;13.312;2023-10-19T01:48:39;7.90;99.90
33699;DHT22;20032;52.436;13.312;2023-10-19T01:51:06;7.80;99.90
33699;DHT22;20032;52.436;13.312;2023-10-19T01:53:35;7.80;99.90
33699;DHT22;20032;52.436;13.312;2023-10-19T01:56:02;7.90;99.90
33699;DHT22;20032;52.436;13.312;2023-10-19T01:58:31;7.90;99.90
33699;DHT22;20032;52.436;13.312;2023-10-19T02:01:02;7.90;99.90
33699;DHT22;20032;52.436;13.312;2023-10-19T02:03:31;7.90;99.90
33699;DHT22;20032;52.436;13.312;2023-10-19T02:05:59;7.80;99.90
33699;DHT22;20032;52.436;13.312;2023-10-19T02:08:25;7.90;99.90
33699;DHT22;20032;52.436;13.312;2023-10-19T02:10:52;7.80;99.90
33699;DHT22;20032;52.436;13.312;2023-10-19T02:13:19;7.90;99.90
33699;DHT22;20032;52.436;13.312;2023-10-19T02:15:45;7.80;99.90
33699;DHT22;20032;52.436;13.312;2023-10-19T02:18:10;7.80;99.90
33699;DHT22;20032;52.436;13.312;2023-10-19T02:20:36;7.80;99.90
33699;DHT22;20032;52.436;13.312;2023-10-19T02:23:07;7.80;99.90
33699;DHT22;20032;52.436;13.312;2023-10-19T02:25:33;7.90;99.90
33699;DHT22;20032;52.436;13.312;2023-10-19T02:28:03;7.80;99.90
33699;DHT22;20032;52.436;13.312;2023-10-19T02:30:32;7.80;99.90
33699;DHT22;20032;52.436;13.312;2023-10-19T02:32:59;7.80;99.90
33699;DHT22;20032;52.436;13.312;2023-10-19T02:35:25;7.90;99.90
33699;DHT22;20032;52.436;13.312;2023-10-19T02:37:52;7.90;99.90
33699;DHT22;20032;52.436;13.312;2023-10-19T02:40:18;7.80;99.90
33699;DHT22;20032;52.436;13.312;2023-10-19T02:42:46;7.90;99.90
33699;DHT22;20032;52.436;13.312;2023-10-19T02:45:13;7.90;99.90
33699;DHT22;20032;52.436;13.312;2023-10-19T02:47:42;7.90;99.90
33699;DHT22;20032;52.436;13.312;2023-10-19T02:50:08;7.90;99.90
33699;DHT22;20032;52.436;13.312;2023-10-19T02:52:39;7.90;99.90
33699;DHT22;20032;52.436;13.312;2023-10-19T02:55:07;7.90;99.90
33699;DHT22;20032;52.436;13.312;2023-10-19T02:57:32;7.90;99.90
33699;DHT22;20032;52.436;13.312;2023-10-19T02:59:58;7.90;99.90
33699;DHT22;20032;52.436;13.312;2023-10-19T03:02:24;7.90;99.90
33699;DHT22;20032;52.436;13.312;2023-10-19T03:04:53;7.90;99.90
33699;DHT22;20032;52.436;13.312;2023-10-19T03:07:18;7.90;99.90
33699;DHT22;20032;52.436;13.312;2023-10-19T03:09:44;7.90;99.90
33699;DHT22;20032;52.436;13.312;2023-10-19T03:12:27;7.90;99.90
33699;DHT22;20032;52.436;13.312;2023-10-19T03:14:53;8.00;99.90
33699;DHT22;20032;52.436;13.312;2023-10-19T03:17:18;7.90;99.90
33699;DHT22;20032;52.436;13.312;2023-10-19T03:19:44;7.90;99.90
33699;DHT22;20032;52.436;13.312;2023-10-19T03:22:09;7.90;99.90
33699;DHT22;20032;52.436;13.312;2023-10-19T03:24:36;7.90;99.90
33699;DHT22;20032;52.436;13.312;2023-10-19T03:27:07;7.90;99.90
33699;DHT22;20032;52.436;13.312;2023-10-19T03:29:39;7.90;99.90
33699;DHT22;20032;52.436;13.312;2023-10-19T03:32:05;7.80;99.90
33699;DHT22;20032;52.436;13.312;2023-10-19T03:34:33;7.90;99.90
33699;DHT22;20032;52.436;13.312;2023-10-19T03:36:59;7.90;99.90
33699;DHT22;20032;52.436;13.312;2023-10-19T03:39:34;7.90;99.90
33699;DHT22;20032;52.436;13.312;2023-10-19T03:41:59;7.90;99.90
33699;DHT22;20032;52.436;13.312;2023-10-19T03:44:26;7.90;99.90
33699;DHT22;20032;52.436;13.312;2023-10-19T03:46:51;7.90;99.90
33699;DHT22;20032;52.436;13.312;2023-10-19T03:49:21;7.80;99.90
33699;DHT22;20032;52.436;13.312;2023-10-19T03:51:47;7.90;99.90
33699;DHT22;20032;52.436;13.312;2023-10-19T03:54:33;7.90;99.90
33699;DHT22;20032;52.436;13.312;2023-10-19T03:57:00;7.90;99.90
33699;DHT22;20032;52.436;13.312;2023-10-19T03:59:31;7.80;99.90
33699;DHT22;20032;52.436;13.312;2023-10-19T04:01:59;7.80;99.90
33699;DHT22;20032;52.436;13.312;2023-10-19T04:04:26;7.90;99.90
33699;DHT22;20032;52.436;13.312;2023-10-19T04:06:52;7.90;99.90
33699;DHT22;20032;52.436;13.312;2023-10-19T04:09:23;7.90;99.90
33699;DHT22;20032;52.436;13.312;2023-10-19T04:11:55;7.80;99.90
33699;DHT22;20032;52.436;13.312;2023-10-19T04:14:21;7.80;99.90
33699;DHT22;20032;52.436;13.312;2023-10-19T04:16:46;7.80;99.90
33699;DHT22;20032;52.436;13.312;2023-10-19T04:19:14;7.80;99.90
33699;DHT22;20032;52.436;13.312;2023-10-19T04:21:41;7.80;99.90
33699;DHT22;20032;52.436;13.312;2023-10-19T04:24:12;7.80;99.90
33699;DHT22;20032;52.436;13.312;2023-10-19T04:26:38;7.80;99.90
33699;DHT22;20032;52.436;13.312;2023-10-19T04:29:04;7.80;99.90
33699;DHT22;20032;52.436;13.312;2023-10-19T04:31:38;7.80;99.90
33699;DHT22;20032;52.436;13.312;2023-10-19T04:34:14;7.80;99.90
33699;DHT22;20032;52.436;13.312;2023-10-19T04:36:39;7.80;99.90
33699;DHT22;20032;52.436;13.312;2023-10-19T04:39:05;7.80;99.90
33699;DHT22;20032;52.436;13.312;2023-10-19T04:41:34;7.80;99.90
33699;DHT22;20032;52.436;13.312;2023-10-19T04:44:00;7.80;99.90
33699;DHT22;20032;52.436;13.312;2023-10-19T04:46:26;7.80;99.90
33699;DHT22;20032;52.436;13.312;2023-10-19T04:48:54;7.80;99.90
33699;DHT22;20032;52.436;13.312;2023-10-19T04:51:19;7.80;99.90
33699;DHT22;20032;52.436;13.312;2023-10-19T04:53:46;7.80;99.90
33699;DHT22;20032;52.436;13.312;2023-10-19T04:56:11;7.80;99.90
33699;DHT22;20032;52.436;13.312;2023-10-19T04:58:38;7.80;99.90
33699;DHT22;20032;52.436;13.312;2023-10-19T05:01:04;7.80;99.90
33699;DHT22;20032;52.436;13.312;2023-10-19T05:03:30;7.80;99.90
33699;DHT22;20032;52.436;13.312;2023-10-19T05:05:56;7.80;99.90
33699;DHT22;20032;52.436;13.312;2023-10-19T05:08:23;7.90;99.90
33699;DHT22;20032;52.436;13.312;2023-10-19T05:10:54;7.90;99.90
33699;DHT22;20032;52.436;13.312;2023-10-19T05:13:20;7.90;99.90
33699;DHT22;20032;52.436;13.312;2023-10-19T05:15:46;7.90;99.90
33699;DHT22;20032;52.436;13.312;2023-10-19T05:18:12;7.90;99.90
33699;DHT22;20032;52.436;13.312;2023-10-19T05:20:37;7.90;99.90
33699;DHT22;20032;52.436;13.312;2023-10-19T05:23:06;7.80;99.90
33699;DHT22;20032;52.436;13.312;2023-10-19T05:25:34;7.80;99.90
33699;DHT22;20032;52.436;13.312;2023-10-19T05:27:59;7.80;99.90
33699;DHT22;20032;52.436;13.312;2023-10-19T05:30:26;7.80;99.90
33699;DHT22;20032;52.436;13.312;2023-10-19T05:32:51;7.80;99.90
33699;DHT22;20032;52.436;13.312;2023-10-19T05:35:18;7.80;99.90
33699;DHT22;20032;52.436;13.312;2023-10-19T05:37:49;7.80;99.90
33699;DHT22;20032;52.436;13.312;2023-10-19T05:40:16;7.70;99.90
33699;DHT22;20032;52.436;13.312;2023-10-19T05:42:43;7.80;99.90
33699;DHT22;20032;52.436;13.312;2023-10-19T05:45:09;7.70;99.90
33699;DHT22;20032;52.436;13.312;2023-10-19T05:47:34;7.70;99.90
33699;DHT22;20032;52.436;13.312;2023-10-19T05:50:00;7.60;99.90
33699;DHT22;20032;52.436;13.312;2023-10-19T05:52:25;7.60;99.90
33699;DHT22;20032;52.436;13.312;2023-10-19T05:54:51;7.60;99.90
33699;DHT22;20032;52.436;13.312;2023-10-19T05:57:19;7.60;99.90
33699;DHT22;20032;52.436;13.312;2023-10-19T05:59:44;7.50;99.90
33699;DHT22;20032;52.436;13.312;2023-10-19T06:02:10;7.50;99.90
33699;DHT22;20032;52.436;13.312;2023-10-19T06:04:35;7.50;99.90
33699;DHT22;20032;52.436;13.312;2023-10-19T06:07:01;7.50;99.90
33699;DHT22;20032;52.436;13.312;2023-10-19T06:09:27;7.50;99.90
33699;DHT22;20032;52.436;13.312;2023-10-19T06:11:55;7.50;99.90
33699;DHT22;20032;52.436;13.312;2023-10-19T06:14:20;7.40;99.90
33699;DHT22;20032;52.436;13.312;2023-10-19T06:16:46;7.40;99.90
33699;DHT22;20032;52.436;13.312;2023-10-19T06:19:11;7.40;99.90
33699;DHT22;20032;52.436;13.312;2023-10-19T06:21:37;7.40;99.90
33699;DHT22;20032;52.436;13.312;2023-10-19T06:24:03;7.40;99.90
33699;DHT22;20032;52.436;13.312;2023-10-19T06:26:29;7.50;99.90
33699;DHT22;20032;52.436;13.312;2023-10-19T06:28:54;7.30;99.90
33699;DHT22;20032;52.436;13.312;2023-10-19T06:31:25;7.30;99.90
33699;DHT22;20032;52.436;13.312;2023-10-19T06:33:51;7.30;99.90
33699;DHT22;20032;52.436;13.312;2023-10-19T06:36:17;7.30;99.90
33699;DHT22;20032;52.436;13.312;2023-10-19T06:38:44;7.30;99.90
33699;DHT22;20032;52.436;13.312;2023-10-19T06:41:11;7.30;99.90
33699;DHT22;20032;52.436;13.312;2023-10-19T06:43:38;7.30;99.90
33699;DHT22;20032;52.436;13.312;2023-10-19T06:46:04;7.30;99.90
33699;DHT22;20032;52.436;13.312;2023-10-19T06:48:29;7.30;99.90
33699;DHT22;20032;52.436;13.312;2023-10-19T06:50:56;7.30;99.90
33699;DHT22;20032;52.436;13.312;2023-10-19T06:53:22;7.30;99.90
33699;DHT22;20032;52.436;13.312;2023-10-19T06:55:47;7.40;99.90
33699;DHT22;20032;52.436;13.312;2023-10-19T06:58:13;7.40;99.90
33699;DHT22;20032;52.436;13.312;2023-10-19T07:00:40;7.40;99.90
33699;DHT22;20032;52.436;13.312;2023-10-19T07:03:08;7.40;99.90
33699;DHT22;20032;52.436;13.312;2023-10-19T07:05:34;7.30;99.90
33699;DHT22;20032;52.436;13.312;2023-10-19T07:07:59;7.30;99.90
33699;DHT22;20032;52.436;13.312;2023-10-19T07:10:27;7.30;99.90
33699;DHT22;20032;52.436;13.312;2023-10-19T07:12:53;7.40;99.90
33699;DHT22;20032;52.436;13.312;2023-10-19T07:15:20;7.50;99.90
33699;DHT22;20032;52.436;13.312;2023-10-19T07:17:48;7.50;99.90
33699;DHT22;20032;52.436;13.312;2023-10-19T07:20:16;7.50;99.90
33699;DHT22;20032;52.436;13.312;2023-10-19T07:22:59;7.50;99.90
33699;DHT22;20032;52.436;13.312;2023-10-19T07:25:33;7.50;99.90
33699;DHT22;20032;52.436;13.312;2023-10-19T07:28:03;7.60;99.90
33699;DHT22;20032;52.436;13.312;2023-10-19T07:30:31;7.60;99.90
33699;DHT22;20032;52.436;13.312;2023-10-19T07:32:56;7.60;99.90
33699;DHT22;20032;52.436;13.312;2023-10-19T07:35:24;7.60;99.90
33699;DHT22;20032;52.436;13.312;2023-10-19T07:37:51;7.70;99.90
33699;DHT22;20032;52.436;13.312;2023-10-19T07:40:17;7.70;99.90
33699;DHT22;20032;52.436;13.312;2023-10-19T07:42:44;7.70;99.90
33699;DHT22;20032;52.436;13.312;2023-10-19T07:45:10;7.70;99.90
33699;DHT22;20032;52.436;13.312;2023-10-19T07:47:39;7.70;99.90
33699;DHT22;20032;52.436;13.312;2023-10-19T07:50:08;7.70;99.90
33699;DHT22;20032;52.436;13.312;2023-10-19T07:52:43;7.80;99.90
33699;DHT22;20032;52.436;13.312;2023-10-19T07:55:09;7.70;99.90
33699;DHT22;20032;52.436;13.312;2023-10-19T07:57:35;7.80;99.90
33699;DHT22;20032;52.436;13.312;2023-10-19T08:00:01;7.80;99.90
33699;DHT22;20032;52.436;13.312;2023-10-19T08:02:26;7.80;99.90
33699;DHT22;20032;52.436;13.312;2023-10-19T08:04:52;7.80;99.90
33699;DHT22;20032;52.436;13.312;2023-10-19T08:07:17;7.80;99.90
33699;DHT22;20032;52.436;13.312;2023-10-19T08:09:44;7.80;99.90
33699;DHT22;20032;52.436;13.312;2023-10-19T08:12:10;7.80;99.90
33699;DHT22;20032;52.436;13.312;2023-10-19T08:14:36;7.90;99.90
33699;DHT22;20032;52.436;13.312;2023-10-19T08:17:02;7.80;99.90
33699;DHT22;20032;52.436;13.312;2023-10-19T08:19:28;7.80;99.90
33699;DHT22;20032;52.436;13.312;2023-10-19T08:21:56;7.80;99.90
33699;DHT22;20032;52.436;13.312;2023-10-19T08:24:22;7.80;99.90
33699;DHT22;20032;52.436;13.312;2023-10-19T08:26:48;7.80;99.90
33699;DHT22;20032;52.436;13.312;2023-10-19T08:29:16;7.90;99.90
33699;DHT22;20032;52.436;13.312;2023-10-19T08:31:43;7.90;99.90
33699;DHT22;20032;52.436;13.312;2023-10-19T08:34:11;8.00;99.90
33699;DHT22;20032;52.436;13.312;2023-10-19T08:36:38;8.00;99.90
33699;DHT22;20032;52.436;13.312;2023-10-19T08:39:06;7.90;99.90
33699;DHT22;20032;52.436;13.312;2023-10-19T08:41:34;7.90;99.90
33699;DHT22;20032;52.436;13.312;2023-10-19T08:44:02;7.90;99.90
33699;DHT22;20032;52.436;13.312;2023-10-19T08:46:28;8.00;99.90
33699;DHT22;20032;52.436;13.312;2023-10-19T08:48:55;8.00;99.90
33699;DHT22;20032;52.436;13.312;2023-10-19T08:51:22;8.10;99.90
33699;DHT22;20032;52.436;13.312;2023-10-19T08:53:52;8.10;99.90
33699;DHT22;20032;52.436;13.312;2023-10-19T08:56:19;8.10;99.90
33699;DHT22;20032;52.436;13.312;2023-10-19T08:58:49;8.10;99.90
33699;DHT22;20032;52.436;13.312;2023-10-19T09:01:18;8.10;99.90
33699;DHT22;20032;52.436;13.312;2023-10-19T09:03:45;8.20;99.90
33699;DHT22;20032;52.436;13.312;2023-10-19T09:06:12;8.30;99.90
33699;DHT22;20032;52.436;13.312;2023-10-19T09:08:39;8.30;99.90
33699;DHT22;20032;52.436;13.312;2023-10-19T09:11:07;8.30;99.90
33699;DHT22;20032;52.436;13.312;2023-10-19T09:13:50;8.30;99.90
33699;DHT22;20032;52.436;13.312;2023-10-19T09:16:20;8.20;99.90
33699;DHT22;20032;52.436;13.312;2023-10-19T09:18:46;8.20;99.90
33699;DHT22;20032;52.436;13.312;2023-10-19T09:21:16;8.30;99.90
33699;DHT22;20032;52.436;13.312;2023-10-19T09:23:58;8.30;99.90
33699;DHT22;20032;52.436;13.312;2023-10-19T09:26:24;8.30;99.90
33699;DHT22;20032;52.436;13.312;2023-10-19T09:28:51;8.30;99.90
33699;DHT22;20032;52.436;13.312;2023-10-19T09:31:17;8.30;99.90
33699;DHT22;20032;52.436;13.312;2023-10-19T09:33:45;8.40;99.90
33699;DHT22;20032;52.436;13.312;2023-10-19T09:36:12;8.40;99.90
33699;DHT22;20032;52.436;13.312;2023-10-19T09:38:39;8.40;99.90
33699;DHT22;20032;52.436;13.312;2023-10-19T09:41:11;8.40;99.90
33699;DHT22;20032;52.436;13.312;2023-10-19T09:43:42;8.40;99.90
33699;DHT22;20032;52.436;13.312;2023-10-19T09:46:08;8.30;99.90
33699;DHT22;20032;52.436;13.312;2023-10-19T09:48:39;8.40;99.90
33699;DHT22;20032;52.436;13.312;2023-10-19T09:51:07;8.40;99.90
33699;DHT22;20032;52.436;13.312;2023-10-19T09:53:36;8.40;99.90
33699;DHT22;20032;52.436;13.312;2023-10-19T09:56:04;8.40;99.90
33699;DHT22;20032;52.436;13.312;2023-10-19T09:58:36;8.40;99.90
33699;DHT22;20032;52.436;13.312;2023-10-19T10:01:03;8.30;99.90
33699;DHT22;20032;52.436;13.312;2023-10-19T10:03:46;8.30;99.90
33699;DHT22;20032;52.436;13.312;2023-10-19T10:06:14;8.40;99.90
33699;DHT22;20032;52.436;13.312;2023-10-19T10:08:42;8.50;99.90
33699;DHT22;20032;52.436;13.312;2023-10-19T10:11:25;8.50;99.90
33699;DHT22;20032;52.436;13.312;2023-10-19T10:13:53;8.40;99.90
33699;DHT22;20032;52.436;13.312;2023-10-19T10:16:22;8.40;99.90
33699;DHT22;20032;52.436;13.312;2023-10-19T10:18:50;8.40;99.90
33699;DHT22;20032;52.436;13.312;2023-10-19T10:21:18;8.40;99.90
33699;DHT22;20032;52.436;13.312;2023-10-19T10:23:47;8.40;99.90
33699;DHT22;20032;52.436;13.312;2023-10-19T10:26:15;8.30;99.90
33699;DHT22;20032;52.436;13.312;2023-10-19T10:28:45;8.30;99.90
33699;DHT22;20032;52.436;13.312;2023-10-19T10:31:15;8.30;99.90
33699;DHT22;20032;52.436;13.312;2023-10-19T10:33:52;8.30;99.90
33699;DHT22;20032;52.436;13.312;2023-10-19T10:36:20;8.30;99.90
33699;DHT22;20032;52.436;13.312;2023-10-19T10:38:49;8.30;99.90
33699;DHT22;20032;52.436;13.312;2023-10-19T10:41:23;8.20;99.90
33699;DHT22;20032;52.436;13.312;2023-10-19T10:43:55;8.30;99.90
33699;DHT22;20032;52.436;13.312;2023-10-19T10:46:22;8.30;99.90
33699;DHT22;20032;52.436;13.312;2023-10-19T10:48:49;8.30;99.90
33699;DHT22;20032;52.436;13.312;2023-10-19T10:51:16;8.30;99.90
33699;DHT22;20032;52.436;13.312;2023-10-19T10:53:42;8.20;99.90
33699;DHT22;20032;52.436;13.312;2023-10-19T10:56:09;8.20;99.90
33699;DHT22;20032;52.436;13.312;2023-10-19T10:58:35;8.20;99.90
33699;DHT22;20032;52.436;13.312;2023-10-19T11:01:00;8.20;99.90
33699;DHT22;20032;52.436;13.312;2023-10-19T11:03:26;8.20;99.90
33699;DHT22;20032;52.436;13.312;2023-10-19T11:06:00;8.20;99.90
33699;DHT22;20032;52.436;13.312;2023-10-19T11:08:27;8.20;99.90
33699;DHT22;20032;52.436;13.312;2023-10-19T11:10:53;8.20;99.90
33699;DHT22;20032;52.436;13.312;2023-10-19T11:13:23;8.30;99.90
33699;DHT22;20032;52.436;13.312;2023-10-19T11:15:51;8.30;99.90
33699;DHT22;20032;52.436;13.312;2023-10-19T11:18:39;8.30;99.90
33699;DHT22;20032;52.436;13.312;2023-10-19T11:21:09;8.30;99.90
33699;DHT22;20032;52.436;13.312;2023-10-19T11:23:50;8.20;99.90
33699;DHT22;20032;52.436;13.312;2023-10-19T11:26:20;8.20;99.90
33699;DHT22;20032;52.436;13.312;2023-10-19T11:28:46;8.30;99.90
33699;DHT22;20032;52.436;13.312;2023-10-19T11:31:17;8.30;99.90
33699;DHT22;20032;52.436;13.312;2023-10-19T11:33:45;8.30;99.90
33699;DHT22;20032;52.436;13.312;2023-10-19T11:36:12;8.30;99.90
33699;DHT22;20032;52.436;13.312;2023-10-19T11:38:40;8.30;99.90
33699;DHT22;20032;52.436;13.312;2023-10-19T11:41:06;8.40;99.90
33699;DHT22;20032;52.436;13.312;2023-10-19T11:43:33;8.30;99.90
33699;DHT22;20032;52.436;13.312;2023-10-19T11:45:59;8.30;99.90
33699;DHT22;20032;52.436;13.312;2023-10-19T11:48:26;8.30;99.90
33699;DHT22;20032;52.436;13.312;2023-10-19T11:50:51;8.30;99.90
33699;DHT22;20032;52.436;13.312;2023-10-19T11:53:17;8.20;99.90
33699;DHT22;20032;52.436;13.312;2023-10-19T11:55:42;8.20;99.90
33699;DHT22;20032;52.436;13.312;2023-10-19T11:58:08;8.20;99.90
33699;DHT22;20032;52.436;13.312;2023-10-19T12:00:37;8.20;99.90
33699;DHT22;20032;52.436;13.312;2023-10-19T12:03:03;8.20;99.90
33699;DHT22;20032;52.436;13.312;2023-10-19T12:05:29;8.20;99.90
33699;DHT22;20032;52.436;13.312;2023-10-19T12:07:55;8.20;99.90
33699;DHT22;20032;52.436;13.312;2023-10-19T12:10:22;8.20;99.90
33699;DHT22;20032;52.436;13.312;2023-10-19T12:12:53;8.20;99.90
33699;DHT22;20032;52.436;13.312;2023-10-19T12:15:19;8.30;99.90
33699;DHT22;20032;52.436;13.312;2023-10-19T12:17:47;8.20;99.90
33699;DHT22;20032;52.436;13.312;2023-10-19T12:20:14;8.20;99.90
33699;DHT22;20032;52.436;13.312;2023-10-19T12:22:39;8.20;99.90
33699;DHT22;20032;52.436;13.312;2023-10-19T12:25:05;8.20;99.90
33699;DHT22;20032;52.436;13.312;2023-10-19T12:27:31;8.20;99.90
33699;DHT22;20032;52.436;13.312;2023-10-19T12:29:56;8.20;99.90
33699;DHT22;20032;52.436;13.312;2023-10-19T12:32:24;8.20;99.90
33699;DHT22;20032;52.436;13.312;2023-10-19T12:34:50;8.20;99.90
33699;DHT22;20032;52.436;13.312;2023-10-19T12:37:19;8.20;99.90
33699;DHT22;20032;52.436;13.312;2023-10-19T12:39:45;8.20;99.90
33699;DHT22;20032;52.436;13.312;2023-10-19T12:42:14;8.20;99.90
33699;DHT22;20032;52.436;13.312;2023-10-19T12:44:40;8.30;99.90
33699;DHT22;20032;52.436;13.312;2023-10-19T12:47:07;8.20;99.90
33699;DHT22;20032;52.436;13.312;2023-10-19T12:49:40;8.30;99.90
33699;DHT22;20032;52.436;13.312;2023-10-19T12:52:07;8.30;99.90
33699;DHT22;20032;52.436;13.312;2023-10-19T12:54:33;8.30;99.90
33699;DHT22;20032;52.436;13.312;2023-10-19T12:57:00;8.30;99.90
33699;DHT22;20032;52.436;13.312;2023-10-19T12:59:26;8.30;99.90
33699;DHT22;20032;52.436;13.312;2023-10-19T13:01:51;8.30;99.90
33699;DHT22;20032;52.436;13.312;2023-10-19T13:04:20;8.30;99.90
33699;DHT22;20032;52.436;13.312;2023-10-19T13:06:49;8.30;99.90
33699;DHT22;20032;52.436;13.312;2023-10-19T13:09:16;8.30;99.90
33699;DHT22;20032;52.436;13.312;2023-10-19T13:11:48;8.30;99.90
33699;DHT22;20032;52.436;13.312;2023-10-19T13:14:17;8.30;99.90
33699;DHT22;20032;52.436;13.312;2023-10-19T13:16:43;8.30;99.90
33699;DHT22;20032;52.436;13.312;2023-10-19T13:19:09;8.30;99.90
33699;DHT22;20032;52.436;13.312;2023-10-19T13:21:39;8.30;99.90
33699;DHT22;20032;52.436;13.312;2023-10-19T13:24:08;8.30;99.90
33699;DHT22;20032;52.436;13.312;2023-10-19T13:26:33;8.30;99.90
33699;DHT22;20032;52.436;13.312;2023-10-19T13:28:59;8.30;99.90
33699;DHT22;20032;52.436;13.312;2023-10-19T13:31:25;8.30;99.90
33699;DHT22;20032;52.436;13.312;2023-10-19T13:33:52;8.30;99.90
33699;DHT22;20032;52.436;13.312;2023-10-19T13:36:18;8.30;99.90
33699;DHT22;20032;52.436;13.312;2023-10-19T13:38:45;8.40;99.90
33699;DHT22;20032;52.436;13.312;2023-10-19T13:41:10;8.30;99.90
33699;DHT22;20032;52.436;13.312;2023-10-19T13:43:39;8.30;99.90
33699;DHT22;20032;52.436;13.312;2023-10-19T13:46:05;8.30;99.90
33699;DHT22;20032;52.436;13.312;2023-10-19T13:48:31;8.30;99.90
33699;DHT22;20032;52.436;13.312;2023-10-19T13:50:57;8.20;99.90
33699;DHT22;20032;52.436;13.312;2023-10-19T13:53:31;8.30;99.90
33699;DHT22;20032;52.436;13.312;2023-10-19T13:55:56;8.20;99.90
33699;DHT22;20032;52.436;13.312;2023-10-19T13:58:21;8.20;99.90
33699;DHT22;20032;52.436;13.312;2023-10-19T14:00:48;8.10;99.90
33699;DHT22;20032;52.436;13.312;2023-10-19T14:03:14;8.20;99.90
33699;DHT22;20032;52.436;13.312;2023-10-19T14:05:44;8.20;99.90
33699;DHT22;20032;52.436;13.312;2023-10-19T14:08:13;8.20;99.90
33699;DHT22;20032;52.436;13.312;2023-10-19T14:10:38;8.20;99.90
33699;DHT22;20032;52.436;13.312;2023-10-19T14:13:07;8.20;99.90
33699;DHT22;20032;52.436;13.312;2023-10-19T14:15:33;8.20;99.90
33699;DHT22;20032;52.436;13.312;2023-10-19T14:17:59;8.10;99.90
33699;DHT22;20032;52.436;13.312;2023-10-19T14:20:27;8.10;99.90
33699;DHT22;20032;52.436;13.312;2023-10-19T14:22:53;8.10;99.90
33699;DHT22;20032;52.436;13.312;2023-10-19T14:25:20;8.10;99.90
33699;DHT22;20032;52.436;13.312;2023-10-19T14:27:48;8.10;99.90
33699;DHT22;20032;52.436;13.312;2023-10-19T14:30:16;8.10;99.90
33699;DHT22;20032;52.436;13.312;2023-10-19T14:32:43;8.10;99.90
33699;DHT22;20032;52.436;13.312;2023-10-19T14:35:10;8.10;99.90
33699;DHT22;20032;52.436;13.312;2023-10-19T14:37:38;8.10;99.90
33699;DHT22;20032;52.436;13.312;2023-10-19T14:40:10;8.10;99.90
33699;DHT22;20032;52.436;13.312;2023-10-19T14:42:37;8.10;99.90
33699;DHT22;20032;52.436;13.312;2023-10-19T14:45:05;8.10;99.90
33699;DHT22;20032;52.436;13.312;2023-10-19T14:47:36;8.10;99.90
33699;DHT22;20032;52.436;13.312;2023-10-19T14:50:03;8.10;99.90
33699;DHT22;20032;52.436;13.312;2023-10-19T14:52:28;8.10;99.90
33699;DHT22;20032;52.436;13.312;2023-10-19T14:54:54;8.00;99.90
33699;DHT22;20032;52.436;13.312;2023-10-19T14:57:21;8.00;99.90
33699;DHT22;20032;52.436;13.312;2023-10-19T14:59:46;8.10;99.90
33699;DHT22;20032;52.436;13.312;2023-10-19T15:02:12;8.10;99.90
33699;DHT22;20032;52.436;13.312;2023-10-19T15:04:38;8.10;99.90
33699;DHT22;20032;52.436;13.312;2023-10-19T15:07:04;8.20;99.90
33699;DHT22;20032;52.436;13.312;2023-10-19T15:09:30;8.20;99.90
33699;DHT22;20032;52.436;13.312;2023-10-19T15:11:56;8.10;99.90
33699;DHT22;20032;52.436;13.312;2023-10-19T15:14:22;8.10;99.90
33699;DHT22;20032;52.436;13.312;2023-10-19T15:16:47;8.10;99.90
33699;DHT22;20032;52.436;13.312;2023-10-19T15:19:13;8.20;99.90
33699;DHT22;20032;52.436;13.312;2023-10-19T15:21:42;8.20;99.90
33699;DHT22;20032;52.436;13.312;2023-10-19T15:24:09;8.10;99.90
33699;DHT22;20032;52.436;13.312;2023-10-19T15:26:34;8.10;99.90
33699;DHT22;20032;52.436;13.312;2023-10-19T15:29:00;8.10;99.90
33699;DHT22;20032;52.436;13.312;2023-10-19T15:31:25;8.20;99.90
33699;DHT22;20032;52.436;13.312;2023-10-19T15:33:51;8.20;99.90